AirNav   Everest Fuels
 
 947 users online  

44FD Hard Rock Heliport
Hollywood, Florida, USA

GOING TO HOLLYWOOD?


FAA INFORMATION EFFECTIVE 21 MAY 2020

Location

FAA Identifier: 44FD
Lat/Long: 26-03-02.6900N 080-12-39.2000W
26-03.044833N 080-12.653333W
26.0507472,-80.2108889
(estimated)
Elevation: 125 ft. / 38 m (estimated)
From city: 5 miles NW of HOLLYWOOD, FL
Time zone: UTC -4 (UTC -5 during Standard Time)
Zip code: 33314

Heliport Operations

Heliport use: Private use. Permission required prior to landing
Activation date: 12/2015
Control tower: no
ARTCC: MIAMI CENTER
FSS: MIAMI FLIGHT SERVICE STATION
Attendance: IREG
Wind indicator: yes
Segmented circle: yes

Heliport Communications

WX ASOS at HWO (3 nm SW): PHONE 954-983-5904
WX ASOS at FLL (4 nm E): PHONE 954-359-7857
WX ASOS at FXE (9 nm N): PHONE 954-772-2537
WX ASOS at OPF (9 nm SW): 125.9 (305-681-4063)
WX ASOS at PMP (13 nm NE): PHONE 954-783-3720
WX ASOS at MIA (16 nm S): 119.15 (305-870-0235)

Nearby radio navigation aids

VOR radial/distance  VOR name  Freq  Var
FLLr246/2.8FORT LAUDERDALE VOR/DME114.4006W
DHPr030/16.8DOLPHIN VORTAC113.9004W
VKZr354/18.2VIRGINIA KEY VOR/DME117.1004W
PBIr193/38.3PALM BEACH VORTAC115.7003W

Heliport Services

Runway Information

Helipad H1

Dimensions: 50 x 50 ft. / 15 x 15 m
Surface: ROOF/TOP
Weight bearing capacity: 
Single wheel: 12.5
Traffic pattern: leftleft

Heliport Ownership and Management from official FAA records

Ownership: Privately-owned
Owner: SEMINOLE TRIBE OF FLORIDA
1 SEMINOLE WAY
HOLLYWOOD, FL 33024
Phone 863-983-7677
Manager: PEDRO RODRIQUEZ
35201 EAGLES LANDING
CLEWISTON, FL 33440
Phone 863-983-7677

Additional Remarks

HELI IS LCTD ON THE TOP FLOOR OF A PARKING GARAGE.
FOR CD CTC MIAMI APCH AT 305-869-5432.

Instrument Procedures

There are no published instrument procedures at 44FD.

Some nearby airports with instrument procedures:

KHWO - North Perry Airport (3 nm SW)
KFLL - Fort Lauderdale/Hollywood International Airport (4 nm E)
KFXE - Fort Lauderdale Executive Airport (9 nm N)
KOPF - Miami-Opa Locka Executive Airport (9 nm SW)
KPMP - Pompano Beach Airpark (13 nm NE)
KMIA - Miami International Airport (16 nm S)
 
Loc | Ops | Rwys | IFR | FBO | Links
Com | Nav | Svcs | Stats | Notes
Aerial photo
No photo
 
Airport distance calculator
Flying to Hard Rock Heliport? Find the distance to fly.

From to 44FD

Sunrise and sunset
Times for 06-Jun-2020
 Local
(UTC-4)
 Zulu
(UTC)
Morning civil twilight06:0310:03
Sunrise06:2910:29
Sunset20:1000:10
Evening civil twilight20:3600:36

Current date and time
Zulu (UTC)  06-Jun-2020 14:04:31
Local (UTC-4)  06-Jun-2020 10:04:31
 
METAR
KHWO 
3nm S 
061353Z 13014G19KT 10SM SCT018 OVC027 A3001 RMK AO2 SLP164
KFLL 
3nm E 
061353Z 14015KT 10SM FEW029 SCT032 OVC200 29/26 A2999 RMK AO2 SLP156 T02890256
KOPF 
9nm SW 
061353Z 13014KT 10SM FEW018 BKN023 BKN030 29/26 A3000 RMK AO2 SLP160 T02890256
KFXE 
9nm N 
061353Z 13015G20KT 10SM SCT020 BKN033 29/25 A3000 RMK AO2 SLP161 T02890250 $
KPMP 
13nm NE 
061353Z 14014G21KT 8SM SCT022 BKN030 27/25 A3000 RMK AO2 SLP161 T02670250 $
KMIA 
17nm S 
061353Z 13013G19KT 10SM FEW016 BKN023 OVC040 29/26 A3000 RMK AO2 SLP157 T02890256
TAF
KFLL 
3nm E 
061153Z 0612/0718 12011KT P6SM VCSH FEW015 SCT025 BKN050 FM061400 15015KT P6SM VCTS SCT025CB BKN035 FM062100 15007KT P6SM FEW025 SCT050 BKN150 FM071200 16010KT P6SM SCT030 BKN100
KOPF 
9nm SW 
061153Z 0612/0712 12011KT P6SM VCSH FEW015 SCT025 BKN050 FM061400 15015KT P6SM VCTS SCT025CB BKN035 FM062100 15007KT P6SM FEW025 SCT050 BKN150
KFXE 
9nm N 
061153Z 0612/0712 12011KT P6SM VCSH FEW015 SCT025 BKN050 FM061400 15015KT P6SM VCTS SCT025CB BKN035 FM062100 15007KT P6SM FEW025 SCT050 BKN150
KMIA 
17nm S 
061153Z 0612/0718 12011KT P6SM VCSH FEW015 SCT025 BKN050 FM061400 15015KT P6SM VCTS SCT025CB BKN035 FM062100 15007KT P6SM FEW025 SCT050 BKN150 FM071200 16010KT P6SM SCT030 BKN100
NOTAMs
Click for the latest NOTAMs
NOTAMs are issued by the DoD/FAA and will open in a separate window not controlled by AirNav.

 

 
 

Would you like to see your business listed on this page?

 If your business provides an interesting product or service to pilots, flight crews, aircraft, or users of the Hard Rock Heliport, you should consider listing it here.  To start the listing process, click on the button below
 
Add a business
 

Other Pages about Hard Rock Heliport

Update a link
 
Copyright © AirNav, LLC. All rights reserved. Privacy Policy  Contact